Time;durP1;ratioP1;P1;durP2;ratioP2;P2;SDS_P1;SDS_P2;PMS_P1;PMS_P2;Temp;Humidity;BMP_temperature;BMP_pressure;BME280_temperature;BME280_humidity;BME280_pressure;Samples;Min_cycle;Max_cycle;Signal;HPM_P1;HPM_P2
2021/12/28 00:01:37;;;;;;;1.45;1.23;;;9.00;99.90;;;;;;5075986;28;20209;-68
2021/12/28 00:04:05;;;;;;;2.13;1.92;;;9.00;99.90;;;;;;5075853;28;20231;-68
2021/12/28 00:06:32;;;;;;;1.58;1.48;;;9.00;99.90;;;;;;5075506;28;20229;-68
2021/12/28 00:08:59;;;;;;;5.75;1.80;;;9.00;99.90;;;;;;5075670;28;20209;-68
2021/12/28 00:11:26;;;;;;;3.85;1.70;;;9.00;99.90;;;;;;5075646;28;20199;-68
2021/12/28 00:13:59;;;;;;;3.33;1.70;;;9.00;99.90;;;;;;5075515;28;20203;-68
2021/12/28 00:16:35;;;;;;;3.28;1.50;;;9.00;99.90;;;;;;5075255;28;20233;-68
2021/12/28 00:19:02;;;;;;;3.90;1.80;;;9.10;99.90;;;;;;5075239;28;20718;-67
2021/12/28 00:21:29;;;;;;;3.95;1.90;;;9.10;99.90;;;;;;5075388;28;20199;-67
2021/12/28 00:23:57;;;;;;;3.42;1.90;;;9.10;99.90;;;;;;5075238;28;20207;-68
2021/12/28 00:26:24;;;;;;;5.97;1.88;;;9.20;99.90;;;;;;5075127;28;20230;-68
2021/12/28 00:28:51;;;;;;;4.82;1.80;;;9.20;99.90;;;;;;5075222;28;20297;-68
2021/12/28 00:31:18;;;;;;;3.42;1.52;;;9.20;99.90;;;;;;5075354;28;20206;-68
2021/12/28 00:33:47;;;;;;;3.50;1.70;;;9.20;99.90;;;;;;5075169;28;20199;-68
2021/12/28 00:36:15;;;;;;;2.13;1.63;;;9.20;99.90;;;;;;5074934;28;20218;-68
2021/12/28 00:38:42;;;;;;;4.55;1.70;;;9.30;99.90;;;;;;5075081;28;20209;-68
2021/12/28 00:41:09;;;;;;;3.35;1.40;;;9.20;99.90;;;;;;5074856;28;20214;-68
2021/12/28 00:43:37;;;;;;;2.95;1.98;;;9.20;99.90;;;;;;5074961;28;20298;-68
2021/12/28 00:46:05;;;;;;;3.20;1.90;;;9.30;99.90;;;;;;5074909;28;20237;-68
2021/12/28 00:48:32;;;;;;;3.00;1.80;;;9.20;99.90;;;;;;5075030;28;20277;-68
2021/12/28 00:51:01;;;;;;;7.88;1.92;;;9.20;99.90;;;;;;5075275;28;20560;-67
2021/12/28 00:53:29;;;;;;;4.95;1.70;;;9.20;99.90;;;;;;5075011;28;20203;-68
2021/12/28 00:55:55;;;;;;;4.82;1.67;;;9.20;99.90;;;;;;5074917;28;20305;-68
2021/12/28 00:58:23;;;;;;;5.05;1.88;;;9.20;99.90;;;;;;5075633;28;20203;-68
2021/12/28 01:00:51;;;;;;;3.47;1.52;;;9.20;99.90;;;;;;5074693;28;20615;-68
2021/12/28 01:03:18;;;;;;;5.22;1.85;;;9.10;99.90;;;;;;5075005;28;20564;-68
2021/12/28 01:05:45;;;;;;;3.75;1.75;;;9.10;99.90;;;;;;5074662;28;20241;-68
2021/12/28 01:08:15;;;;;;;7.45;1.95;;;9.00;99.90;;;;;;5074643;28;20209;-68
2021/12/28 01:10:44;;;;;;;4.03;2.30;;;9.00;99.90;;;;;;5075547;28;20324;-68
2021/12/28 01:13:11;;;;;;;4.47;1.55;;;9.00;99.90;;;;;;5074677;28;20624;-68
2021/12/28 01:15:39;;;;;;;3.30;2.00;;;9.00;99.90;;;;;;5074169;28;20221;-67
2021/12/28 01:18:06;;;;;;;4.75;1.67;;;9.00;99.90;;;;;;5074316;28;20211;-68
2021/12/28 01:20:33;;;;;;;7.82;2.30;;;9.00;99.90;;;;;;5074758;28;20207;-68
2021/12/28 01:23:00;;;;;;;5.35;1.77;;;9.00;99.90;;;;;;5074648;28;20207;-68
2021/12/28 01:25:28;;;;;;;6.57;1.90;;;9.10;99.90;;;;;;5074323;28;20230;-68
2021/12/28 01:27:55;;;;;;;3.83;1.67;;;9.00;99.90;;;;;;5074587;28;20203;-67
2021/12/28 01:30:25;;;;;;;5.68;1.50;;;9.00;99.90;;;;;;5074481;28;20209;-68
2021/12/28 01:32:52;;;;;;;5.40;1.80;;;9.10;99.90;;;;;;5074165;28;20685;-68
2021/12/28 01:35:21;;;;;;;4.30;2.00;;;9.00;99.90;;;;;;5073837;28;20711;-68
2021/12/28 01:37:49;;;;;;;6.00;2.00;;;9.00;99.90;;;;;;5074130;28;20233;-68
2021/12/28 01:40:18;;;;;;;3.25;1.73;;;8.90;99.90;;;;;;5074122;28;20213;-68
2021/12/28 01:42:57;;;;;;;2.38;1.50;;;8.90;99.90;;;;;;5074457;28;20207;-67
2021/12/28 01:45:33;;;;;;;3.60;1.50;;;8.80;99.90;;;;;;5073832;28;20596;-68
2021/12/28 01:48:00;;;;;;;4.07;1.60;;;8.80;99.90;;;;;;5073631;28;20209;-67
2021/12/28 01:50:27;;;;;;;5.55;2.17;;;8.70;99.90;;;;;;5073976;28;20207;-68
2021/12/28 01:52:54;;;;;;;4.00;1.65;;;8.70;99.90;;;;;;5073975;28;20203;-68
2021/12/28 01:55:21;;;;;;;2.53;1.60;;;8.60;99.90;;;;;;5073712;28;20222;-68
2021/12/28 01:57:48;;;;;;;2.60;1.60;;;8.60;99.90;;;;;;5073813;28;20203;-68
2021/12/28 02:00:18;;;;;;;2.00;1.80;;;8.50;99.90;;;;;;5074112;28;20208;-68
2021/12/28 02:02:46;;;;;;;5.80;2.05;;;8.60;99.90;;;;;;5074318;28;20203;-68
2021/12/28 02:05:13;;;;;;;3.55;2.00;;;8.60;99.90;;;;;;5073593;28;20229;-68
2021/12/28 02:07:39;;;;;;;4.40;1.52;;;8.50;99.90;;;;;;5074541;28;20209;-68
2021/12/28 02:10:07;;;;;;;5.38;2.35;;;8.60;99.90;;;;;;5074846;28;20209;-68
2021/12/28 02:12:34;;;;;;;3.45;1.80;;;8.60;99.90;;;;;;5073889;28;20209;-68
2021/12/28 02:15:06;;;;;;;2.85;1.88;;;8.60;99.90;;;;;;5073799;28;20215;-68
2021/12/28 02:17:35;;;;;;;2.97;2.00;;;8.60;99.90;;;;;;5073198;28;20653;-67
2021/12/28 02:20:09;;;;;;;6.15;2.10;;;8.60;99.90;;;;;;5073474;28;20204;-67
2021/12/28 02:22:36;;;;;;;4.07;2.03;;;8.60;99.90;;;;;;5073430;28;20210;-68
2021/12/28 02:25:03;;;;;;;4.07;1.80;;;8.70;99.90;;;;;;5072931;28;20313;-68
2021/12/28 02:27:30;;;;;;;5.95;2.55;;;8.70;99.90;;;;;;5073368;28;20202;-68
2021/12/28 02:29:58;;;;;;;4.00;2.13;;;8.70;99.90;;;;;;5073458;28;20537;-67
2021/12/28 02:32:28;;;;;;;4.28;2.03;;;8.70;99.90;;;;;;5073384;28;20229;-68
2021/12/28 02:34:55;;;;;;;4.47;2.30;;;8.60;99.90;;;;;;5072931;28;20179;-68
2021/12/28 02:37:25;;;;;;;4.43;2.25;;;8.50;99.90;;;;;;5073015;28;20293;-67
2021/12/28 02:39:52;;;;;;;4.05;1.90;;;8.50;99.90;;;;;;5073181;28;20217;-68
2021/12/28 02:42:21;;;;;;;6.03;2.15;;;8.50;99.90;;;;;;5073259;28;20209;-68
2021/12/28 02:44:56;;;;;;;2.97;2.10;;;8.50;99.90;;;;;;5072862;28;20207;-67
2021/12/28 02:47:23;;;;;;;2.17;1.50;;;8.50;99.90;;;;;;5073350;28;20187;-67
2021/12/28 02:49:50;;;;;;;2.88;1.80;;;8.50;99.90;;;;;;5073211;28;20568;-67
2021/12/28 02:52:17;;;;;;;5.75;2.33;;;8.50;99.90;;;;;;5073276;28;20203;-68
2021/12/28 02:54:45;;;;;;;3.70;2.20;;;8.50;99.90;;;;;;5072866;28;20207;-68
2021/12/28 02:57:12;;;;;;;5.82;2.33;;;8.60;99.90;;;;;;5073203;28;20209;-68
2021/12/28 02:59:46;;;;;;;5.03;2.45;;;8.50;99.90;;;;;;5073342;28;20559;-67
2021/12/28 03:02:13;;;;;;;4.10;2.00;;;8.50;99.90;;;;;;5073525;28;20191;-68
2021/12/28 03:04:40;;;;;;;5.60;2.40;;;8.50;99.90;;;;;;5072775;28;20199;-68
2021/12/28 03:07:07;;;;;;;5.22;2.53;;;8.40;99.90;;;;;;5072629;28;20223;-69
2021/12/28 03:09:34;;;;;;;6.80;2.40;;;8.50;99.90;;;;;;5073047;28;20203;-68
2021/12/28 03:12:02;;;;;;;3.75;2.05;;;8.50;99.90;;;;;;5072945;28;20564;-68
2021/12/28 03:14:29;;;;;;;7.13;2.05;;;8.50;99.90;;;;;;5072718;28;20298;-68
2021/12/28 03:16:56;;;;;;;5.03;2.70;;;8.40;99.90;;;;;;5072862;28;20223;-68
2021/12/28 03:19:23;;;;;;;4.70;2.17;;;8.40;99.90;;;;;;5072687;28;20203;-68
2021/12/28 03:21:50;;;;;;;5.05;1.80;;;8.40;99.90;;;;;;5072881;28;20207;-68
2021/12/28 03:24:17;;;;;;;4.70;2.20;;;8.40;99.90;;;;;;5074948;28;20613;-68
2021/12/28 03:26:45;;;;;;;3.80;1.73;;;8.50;99.90;;;;;;5076190;28;20229;-68
2021/12/28 03:29:13;;;;;;;5.05;2.83;;;8.40;99.90;;;;;;5076369;28;20203;-68
2021/12/28 03:31:40;;;;;;;3.35;1.70;;;8.40;99.90;;;;;;5076308;28;20199;-68
2021/12/28 03:34:07;;;;;;;3.55;1.88;;;8.50;99.90;;;;;;5076385;28;20680;-68
2021/12/28 03:36:34;;;;;;;5.57;2.30;;;8.50;99.90;;;;;;5075973;28;20230;-68
2021/12/28 03:39:01;;;;;;;4.95;2.05;;;8.50;99.90;;;;;;5076046;28;20210;-68
2021/12/28 03:41:30;;;;;;;4.90;1.90;;;8.50;99.90;;;;;;5076077;28;20572;-68
2021/12/28 03:43:59;;;;;;;2.95;2.13;;;8.50;99.90;;;;;;5076038;28;20294;-68
2021/12/28 03:46:29;;;;;;;3.97;2.50;;;8.50;99.90;;;;;;5075936;28;20235;-68
2021/12/28 03:48:56;;;;;;;5.85;2.33;;;8.50;99.90;;;;;;5076189;28;20203;-68
2021/12/28 03:51:23;;;;;;;4.80;2.05;;;8.50;99.90;;;;;;5075914;28;20207;-68
2021/12/28 03:53:51;;;;;;;5.32;2.17;;;8.40;99.90;;;;;;5075788;28;20207;-68
2021/12/28 03:56:19;;;;;;;4.15;2.10;;;8.40;99.90;;;;;;5075719;28;20229;-68
2021/12/28 03:58:46;;;;;;;4.25;1.80;;;8.50;99.90;;;;;;5075867;28;20211;-68
2021/12/28 04:01:17;;;;;;;6.75;1.95;;;8.50;99.90;;;;;;5075748;28;20564;-68
2021/12/28 04:03:45;;;;;;;3.55;1.98;;;8.40;99.90;;;;;;5075837;28;20226;-68
2021/12/28 04:06:12;;;;;;;4.00;2.45;;;8.50;99.90;;;;;;5075080;28;20711;-68
2021/12/28 04:08:41;;;;;;;6.55;2.15;;;8.50;99.90;;;;;;5075680;28;20205;-68
2021/12/28 04:11:25;;;;;;;2.95;1.90;;;8.50;99.90;;;;;;5075427;28;20202;-68
2021/12/28 04:13:53;;;;;;;3.05;2.08;;;8.50;99.90;;;;;;5075426;28;20268;-68
2021/12/28 04:16:21;;;;;;;3.30;2.00;;;8.50;99.90;;;;;;5075094;28;20219;-68
2021/12/28 04:18:50;;;;;;;4.88;2.25;;;8.50;99.90;;;;;;5075401;28;20203;-68
2021/12/28 04:21:17;;;;;;;6.22;1.92;;;8.60;99.90;;;;;;5075767;28;20210;-68
2021/12/28 04:23:44;;;;;;;5.75;2.30;;;8.60;99.90;;;;;;5075200;28;20202;-68
2021/12/28 04:26:11;;;;;;;7.90;2.35;;;8.50;99.90;;;;;;5075255;28;20232;-68
2021/12/28 04:28:38;;;;;;;4.30;2.33;;;8.50;99.90;;;;;;5075091;28;20690;-68
2021/12/28 04:31:05;;;;;;;4.85;2.25;;;8.50;99.90;;;;;;5075511;28;20293;-68
2021/12/28 04:33:32;;;;;;;4.00;2.08;;;8.60;99.90;;;;;;5075230;28;20205;-68
2021/12/28 04:36:00;;;;;;;4.28;2.30;;;8.60;99.90;;;;;;5074352;28;20305;-68
2021/12/28 04:38:27;;;;;;;3.97;2.05;;;8.60;99.90;;;;;;5074795;28;20209;-68
2021/12/28 04:40:55;;;;;;;3.88;2.35;;;8.60;99.90;;;;;;5075047;28;20218;-68
2021/12/28 04:43:22;;;;;;;3.50;2.05;;;8.70;99.90;;;;;;5075086;28;20203;-68
2021/12/28 04:45:49;;;;;;;4.30;2.10;;;8.70;99.90;;;;;;5074635;28;20226;-68
2021/12/28 04:48:16;;;;;;;3.90;2.00;;;8.70;99.90;;;;;;5075021;28;20202;-68
2021/12/28 04:50:45;;;;;;;2.20;1.60;;;8.60;99.90;;;;;;5074889;28;20199;-68
2021/12/28 04:53:14;;;;;;;2.47;2.10;;;8.60;99.90;;;;;;5074703;28;20203;-68
2021/12/28 04:55:43;;;;;;;3.97;1.83;;;8.60;99.90;;;;;;5074581;28;20584;-68
2021/12/28 04:58:11;;;;;;;4.65;2.50;;;8.70;99.90;;;;;;5074659;28;20202;-68
2021/12/28 05:00:38;;;;;;;6.80;2.80;;;8.60;99.90;;;;;;5074485;28;20205;-68
2021/12/28 05:03:06;;;;;;;6.80;2.35;;;8.60;99.90;;;;;;5074780;28;20570;-68
2021/12/28 05:05:34;;;;;;;6.40;2.60;;;8.60;99.90;;;;;;5074169;28;20222;-68
2021/12/28 05:08:03;;;;;;;6.05;2.40;;;8.70;99.90;;;;;;5074575;28;20199;-68
2021/12/28 05:10:31;;;;;;;3.67;2.00;;;8.60;99.90;;;;;;5074433;28;20213;-68
2021/12/28 05:12:58;;;;;;;6.10;2.22;;;8.70;99.90;;;;;;5074846;28;20206;-69
2021/12/28 05:15:25;;;;;;;4.95;2.50;;;8.60;99.90;;;;;;5074533;28;20225;-69
2021/12/28 05:17:52;;;;;;;5.25;2.45;;;8.60;99.90;;;;;;5074364;28;20735;-68
2021/12/28 05:20:19;;;;;;;4.18;2.40;;;8.60;99.90;;;;;;5074381;28;20203;-68
2021/12/28 05:22:46;;;;;;;6.43;2.53;;;8.60;99.90;;;;;;5074013;28;20744;-68
2021/12/28 05:25:12;;;;;;;4.82;2.58;;;8.60;99.90;;;;;;5074333;28;20219;-68
2021/12/28 05:27:41;;;;;;;4.05;2.63;;;8.50;99.90;;;;;;5074290;28;20581;-68
2021/12/28 05:30:10;;;;;;;3.58;2.63;;;8.60;99.90;;;;;;5074464;28;20250;-68
2021/12/28 05:32:37;;;;;;;3.83;2.53;;;8.60;99.90;;;;;;5074116;28;20703;-68
2021/12/28 05:35:05;;;;;;;2.90;2.25;;;8.60;99.90;;;;;;5073696;28;20225;-68
2021/12/28 05:37:33;;;;;;;3.65;2.60;;;8.70;99.90;;;;;;5074362;28;20579;-68
2021/12/28 05:39:59;;;;;;;3.05;2.60;;;8.60;99.90;;;;;;5074076;28;20596;-68
2021/12/28 05:42:26;;;;;;;4.30;3.90;;;8.60;99.90;;;;;;5073859;28;20191;-68
2021/12/28 05:44:55;;;;;;;5.25;2.50;;;8.60;99.90;;;;;;5073898;28;20226;-68
2021/12/28 05:47:21;;;;;;;2.72;2.10;;;8.60;99.90;;;;;;5073212;28;20313;-68
2021/12/28 05:49:48;;;;;;;6.68;2.85;;;8.60;99.90;;;;;;5073933;28;20563;-68
2021/12/28 05:52:15;;;;;;;4.25;2.35;;;8.60;99.90;;;;;;5074285;28;20203;-68
2021/12/28 05:54:42;;;;;;;6.05;2.50;;;8.70;99.90;;;;;;5073894;28;20198;-69
2021/12/28 05:57:09;;;;;;;4.03;2.30;;;8.70;99.90;;;;;;5074236;28;20353;-68
2021/12/28 05:59:37;;;;;;;2.80;2.58;;;8.70;99.90;;;;;;5074411;28;20198;-68
2021/12/28 06:02:06;;;;;;;4.60;2.63;;;8.70;99.90;;;;;;5074221;28;20213;-68
2021/12/28 06:04:33;;;;;;;3.80;2.70;;;8.80;99.90;;;;;;5074016;28;20203;-68
2021/12/28 06:07:00;;;;;;;4.45;2.50;;;8.80;99.90;;;;;;5074416;28;20599;-68
2021/12/28 06:09:27;;;;;;;4.03;2.53;;;8.80;99.90;;;;;;5073995;28;20297;-69
2021/12/28 06:11:54;;;;;;;2.65;2.45;;;8.80;99.90;;;;;;5074170;28;20204;-68
2021/12/28 06:14:21;;;;;;;4.05;2.85;;;8.70;99.90;;;;;;5074151;28;20292;-68
2021/12/28 06:16:48;;;;;;;2.53;2.22;;;8.80;99.90;;;;;;5074078;28;20227;-68
2021/12/28 06:19:16;;;;;;;4.13;2.80;;;8.70;99.90;;;;;;5074025;28;20203;-68
2021/12/28 06:21:43;;;;;;;2.47;2.28;;;8.70;99.90;;;;;;5074232;28;20297;-68
2021/12/28 06:24:10;;;;;;;5.32;2.38;;;8.70;99.90;;;;;;5073984;28;20206;-69
2021/12/28 06:26:37;;;;;;;2.70;2.50;;;8.70;99.90;;;;;;5073572;28;20226;-68
2021/12/28 06:29:06;;;;;;;4.45;2.90;;;8.70;99.90;;;;;;5074032;28;20202;-68
2021/12/28 06:31:33;;;;;;;3.92;2.58;;;8.70;99.90;;;;;;5073784;28;20207;-68
2021/12/28 06:34:02;;;;;;;2.67;2.47;;;8.70;99.90;;;;;;5073203;28;20205;-68
2021/12/28 06:36:31;;;;;;;5.30;2.30;;;8.70;99.90;;;;;;5073295;28;20223;-68
2021/12/28 06:38:58;;;;;;;2.60;2.25;;;8.70;99.90;;;;;;5073420;28;20293;-68
2021/12/28 06:41:25;;;;;;;2.30;2.10;;;8.70;99.90;;;;;;5073056;28;20207;-68
2021/12/28 06:43:52;;;;;;;3.75;2.60;;;8.70;99.90;;;;;;5073329;28;20202;-68
2021/12/28 06:46:19;;;;;;;4.38;2.50;;;8.70;99.90;;;;;;5073210;28;20318;-68
2021/12/28 06:48:46;;;;;;;7.15;1.95;;;8.70;99.90;;;;;;5074028;28;20207;-69
2021/12/28 06:51:13;;;;;;;3.95;2.95;;;8.70;99.90;;;;;;5073472;28;20748;-68
2021/12/28 06:53:41;;;;;;;4.82;3.38;;;8.80;99.90;;;;;;5073432;28;20231;-69
2021/12/28 06:56:08;;;;;;;5.72;4.22;;;8.80;99.90;;;;;;5073251;28;20218;-68
2021/12/28 06:58:35;;;;;;;3.20;2.50;;;8.70;99.90;;;;;;5074652;28;20224;-68
2021/12/28 07:01:02;;;;;;;9.15;6.28;;;8.70;99.90;;;;;;5077429;28;20207;-69
2021/12/28 07:03:28;;;;;;;14.73;7.72;;;8.70;99.90;;;;;;5077527;28;20301;-68
2021/12/28 07:05:55;;;;;;;11.77;7.35;;;8.60;99.90;;;;;;5077026;28;20223;-68
2021/12/28 07:08:22;;;;;;;6.95;4.25;;;8.60;99.90;;;;;;5077271;28;20234;-68
2021/12/28 07:10:50;;;;;;;14.13;8.55;;;8.70;99.90;;;;;;5076987;28;20293;-68
2021/12/28 07:13:18;;;;;;;6.68;4.15;;;8.70;99.90;;;;;;5076915;28;20203;-68
2021/12/28 07:15:47;;;;;;;5.03;3.55;;;8.80;99.90;;;;;;5076493;28;20222;-68
2021/12/28 07:18:14;;;;;;;2.70;2.42;;;8.80;99.90;;;;;;5076533;28;20210;-68
2021/12/28 07:20:41;;;;;;;3.85;2.13;;;8.80;99.90;;;;;;5076439;28;20661;-68
2021/12/28 07:23:07;;;;;;;2.15;1.95;;;8.80;99.90;;;;;;5076674;28;20234;-68
2021/12/28 07:25:34;;;;;;;1.38;1.27;;;8.80;99.90;;;;;;5076629;28;20241;-68
2021/12/28 07:28:03;;;;;;;1.63;1.20;;;8.90;99.90;;;;;;5076712;28;20413;-68
2021/12/28 07:30:29;;;;;;;1.15;1.10;;;8.90;99.90;;;;;;5076643;28;20207;-68
2021/12/28 07:32:56;;;;;;;0.80;0.77;;;9.00;99.90;;;;;;5076538;28;20298;-68
2021/12/28 07:35:23;;;;;;;0.85;0.70;;;9.10;99.90;;;;;;5076182;28;20222;-68
2021/12/28 07:37:50;;;;;;;0.85;0.80;;;9.10;99.90;;;;;;5076830;28;20205;-69
2021/12/28 07:40:17;;;;;;;0.77;0.77;;;9.20;99.90;;;;;;5076323;28;20218;-68
2021/12/28 07:42:44;;;;;;;0.80;0.80;;;9.30;99.90;;;;;;5076373;28;20632;-68
2021/12/28 07:45:13;;;;;;;1.88;0.70;;;9.30;99.90;;;;;;5076217;28;20222;-68
2021/12/28 07:47:41;;;;;;;0.70;0.70;;;9.40;99.90;;;;;;5076422;28;20608;-68
2021/12/28 07:50:12;;;;;;;3.17;2.88;;;9.40;99.90;;;;;;5076246;28;20293;-69
2021/12/28 07:52:39;;;;;;;0.80;0.70;;;9.40;99.90;;;;;;5076359;28;20213;-69
2021/12/28 07:55:08;;;;;;;0.68;0.68;;;9.50;99.90;;;;;;5076177;28;20225;-68
2021/12/28 07:57:35;;;;;;;0.65;0.65;;;9.50;99.90;;;;;;5076338;28;20199;-68
2021/12/28 08:00:03;;;;;;;6.18;4.70;;;9.50;99.90;;;;;;5076091;28;20199;-68
2021/12/28 08:02:31;;;;;;;0.70;0.70;;;9.50;99.90;;;;;;5076132;28;20203;-68
2021/12/28 08:04:58;;;;;;;0.65;0.65;;;9.60;99.90;;;;;;5075915;28;20307;-68
2021/12/28 08:07:25;;;;;;;0.70;0.70;;;9.60;99.90;;;;;;5076139;28;20223;-68
2021/12/28 08:09:52;;;;;;;0.60;0.60;;;9.70;99.90;;;;;;5074921;28;20297;-68
2021/12/28 08:12:19;;;;;;;0.60;0.60;;;9.70;99.90;;;;;;5075658;28;20209;-68
2021/12/28 08:14:45;;;;;;;0.77;0.77;;;9.80;99.90;;;;;;5075295;28;20550;-68
2021/12/28 08:17:12;;;;;;;2.50;2.30;;;9.80;99.90;;;;;;5075641;28;20202;-68
2021/12/28 08:19:40;;;;;;;0.73;0.65;;;9.80;99.90;;;;;;5075847;28;20293;-68
2021/12/28 08:22:10;;;;;;;0.60;0.60;;;9.80;99.90;;;;;;5075810;28;20199;-68
2021/12/28 08:24:37;;;;;;;0.55;0.55;;;9.80;99.90;;;;;;5075301;28;20202;-68
2021/12/28 08:27:04;;;;;;;0.80;0.80;;;9.80;99.90;;;;;;5075231;28;20223;-68
2021/12/28 08:29:31;;;;;;;0.65;0.60;;;9.80;99.90;;;;;;5075553;28;20561;-68
2021/12/28 08:31:57;;;;;;;1.20;0.90;;;9.80;99.90;;;;;;5075430;28;20203;-68
2021/12/28 08:34:24;;;;;;;1.90;0.98;;;9.80;99.90;;;;;;5074760;28;20202;-69
2021/12/28 08:36:52;;;;;;;1.27;1.17;;;9.90;99.90;;;;;;5075232;28;20588;-68
2021/12/28 08:39:19;;;;;;;0.88;0.80;;;9.90;99.90;;;;;;5075141;28;20639;-68
2021/12/28 08:41:46;;;;;;;0.50;0.50;;;9.90;99.90;;;;;;5075050;28;20222;-68
2021/12/28 08:44:13;;;;;;;0.60;0.60;;;9.90;99.90;;;;;;5075322;28;20218;-68
2021/12/28 08:46:42;;;;;;;0.98;0.50;;;9.90;99.90;;;;;;5074626;28;20272;-68
2021/12/28 08:49:09;;;;;;;0.50;0.40;;;10.10;99.90;;;;;;5075128;28;20257;-68
2021/12/28 08:51:36;;;;;;;0.38;0.38;;;10.20;99.90;;;;;;5075127;28;20289;-68
2021/12/28 08:54:04;;;;;;;0.70;0.70;;;10.20;99.90;;;;;;5075017;28;20199;-68
2021/12/28 08:56:31;;;;;;;0.45;0.35;;;10.30;99.90;;;;;;5074641;28;20223;-68
2021/12/28 08:58:58;;;;;;;0.60;0.40;;;10.30;99.90;;;;;;5074813;28;20199;-68
2021/12/28 09:01:25;;;;;;;2.10;0.40;;;10.30;99.90;;;;;;5074681;28;20309;-68
2021/12/28 09:03:53;;;;;;;0.50;0.50;;;10.30;99.90;;;;;;5074855;28;20621;-68
2021/12/28 09:06:20;;;;;;;0.50;0.50;;;10.40;99.90;;;;;;5074470;28;20276;-68
2021/12/28 09:08:47;;;;;;;0.40;0.40;;;10.40;99.90;;;;;;5074670;28;20230;-68
2021/12/28 09:11:15;;;;;;;0.55;0.55;;;10.40;99.90;;;;;;5074534;28;20214;-68
2021/12/28 09:13:42;;;;;;;0.75;0.60;;;10.40;99.90;;;;;;5074277;28;20661;-68
2021/12/28 09:16:09;;;;;;;0.65;0.50;;;10.50;99.90;;;;;;5074464;28;20219;-68
2021/12/28 09:18:36;;;;;;;0.40;0.40;;;10.50;99.90;;;;;;5074416;28;20206;-68
2021/12/28 09:21:02;;;;;;;0.40;0.40;;;10.50;99.90;;;;;;5074137;28;20293;-68
2021/12/28 09:23:30;;;;;;;1.05;0.50;;;10.50;99.90;;;;;;5074525;28;20691;-68
2021/12/28 09:26:00;;;;;;;5.03;4.00;;;10.60;99.90;;;;;;5073849;28;20226;-68
2021/12/28 09:28:28;;;;;;;0.40;0.40;;;10.70;99.90;;;;;;5074160;28;20226;-68
2021/12/28 09:30:55;;;;;;;0.40;0.40;;;10.80;99.90;;;;;;5074332;28;20297;-68
2021/12/28 09:33:21;;;;;;;0.60;0.43;;;10.90;99.90;;;;;;5073931;28;20202;-68
2021/12/28 09:35:48;;;;;;;0.70;0.55;;;10.90;99.90;;;;;;5073797;28;20261;-68
2021/12/28 09:38:16;;;;;;;0.55;0.50;;;10.90;99.90;;;;;;5074232;28;20286;-68
2021/12/28 09:40:43;;;;;;;0.40;0.30;;;10.90;99.90;;;;;;5074041;28;20612;-68
2021/12/28 09:43:10;;;;;;;0.82;0.63;;;11.00;99.90;;;;;;5073847;28;20763;-68
2021/12/28 09:45:39;;;;;;;0.40;0.30;;;11.00;99.90;;;;;;5073885;28;20577;-68
2021/12/28 09:48:06;;;;;;;0.40;0.40;;;11.00;99.90;;;;;;5073992;28;20222;-68
2021/12/28 09:50:34;;;;;;;0.40;0.40;;;11.10;99.90;;;;;;5073998;28;20299;-68
2021/12/28 09:53:02;;;;;;;2.35;0.43;;;11.10;99.90;;;;;;5073696;28;20694;-68
2021/12/28 09:55:30;;;;;;;0.45;0.40;;;11.10;99.90;;;;;;5073765;28;20580;-68
2021/12/28 09:57:58;;;;;;;0.50;0.50;;;11.20;99.90;;;;;;5073954;28;20198;-68
2021/12/28 10:00:25;;;;;;;0.77;0.45;;;11.20;99.90;;;;;;5073670;28;20209;-68
2021/12/28 10:02:55;;;;;;;1.30;0.60;;;11.30;99.90;;;;;;5073938;28;20213;-68
2021/12/28 10:05:24;;;;;;;0.50;0.50;;;11.40;99.90;;;;;;5073456;28;20226;-68
2021/12/28 10:07:56;;;;;;;0.60;0.60;;;11.40;99.90;;;;;;5073694;28;20637;-68
2021/12/28 10:10:25;;;;;;;1.58;1.48;;;11.50;99.90;;;;;;5073775;28;20194;-68
2021/12/28 10:12:54;;;;;;;0.88;0.85;;;11.50;99.90;;;;;;5073714;28;20199;-68
2021/12/28 10:15:23;;;;;;;6.03;4.65;;;11.60;99.90;;;;;;5073475;28;20594;-68
2021/12/28 10:17:53;;;;;;;0.50;0.50;;;11.70;99.90;;;;;;5073620;28;20202;-68
2021/12/28 10:20:23;;;;;;;0.60;0.60;;;11.80;99.90;;;;;;5073596;28;20207;-68
2021/12/28 10:22:53;;;;;;;0.50;0.50;;;11.70;99.90;;;;;;5074061;28;20317;-68
2021/12/28 10:25:23;;;;;;;1.95;1.38;;;11.80;99.90;;;;;;5073600;28;20226;-68
2021/12/28 10:27:52;;;;;;;0.60;0.60;;;11.80;99.90;;;;;;5073914;28;20340;-69
2021/12/28 10:30:21;;;;;;;0.65;0.65;;;11.80;99.90;;;;;;5074070;28;20297;-69
2021/12/28 10:32:50;;;;;;;3.75;0.65;;;11.80;99.90;;;;;;5074077;28;20546;-68
2021/12/28 10:35:21;;;;;;;0.50;0.50;;;11.70;99.90;;;;;;5077673;28;20655;-68
2021/12/28 10:37:50;;;;;;;0.60;0.60;;;11.70;99.90;;;;;;5077932;28;20289;-68
2021/12/28 10:40:24;;;;;;;0.52;0.52;;;11.60;99.90;;;;;;5077712;28;20206;-68
2021/12/28 10:42:55;;;;;;;0.70;0.60;;;11.70;99.90;;;;;;5078122;28;20195;-68
2021/12/28 10:45:24;;;;;;;0.55;0.55;;;11.80;99.90;;;;;;5077389;28;20700;-69
2021/12/28 10:47:52;;;;;;;0.60;0.60;;;11.90;99.90;;;;;;5077497;28;20219;-68
2021/12/28 10:50:35;;;;;;;0.50;0.50;;;12.00;99.90;;;;;;5077610;28;20202;-68
2021/12/28 10:53:18;;;;;;;0.50;0.50;;;11.90;99.90;;;;;;5077511;28;20242;-68
2021/12/28 10:55:46;;;;;;;0.60;0.40;;;12.00;99.90;;;;;;5077099;28;20226;-68
2021/12/28 10:58:22;;;;;;;0.50;0.50;;;12.00;99.90;;;;;;5077733;28;20199;-68
2021/12/28 11:00:49;;;;;;;0.70;0.52;;;12.00;99.90;;;;;;5077498;28;20675;-68
2021/12/28 11:03:23;;;;;;;1.25;1.15;;;12.00;99.90;;;;;;5077378;28;20199;-68
2021/12/28 11:05:52;;;;;;;1.33;0.70;;;12.10;99.90;;;;;;5076860;28;20709;-68
2021/12/28 11:08:20;;;;;;;2.20;1.70;;;12.20;99.90;;;;;;5077101;28;20227;-68
2021/12/28 11:10:49;;;;;;;1.40;1.30;;;12.20;99.90;;;;;;5077122;28;20202;-68
2021/12/28 11:13:20;;;;;;;1.75;1.55;;;12.30;99.90;;;;;;5077879;28;20202;-69
2021/12/28 11:15:48;;;;;;;1.13;1.02;;;12.40;99.90;;;;;;5077001;28;20313;-68
2021/12/28 11:18:20;;;;;;;1.38;1.20;;;12.40;99.90;;;;;;5076977;28;20248;-69
2021/12/28 11:20:47;;;;;;;1.50;1.25;;;12.40;99.90;;;;;;5076895;28;20199;-69
2021/12/28 11:23:21;;;;;;;0.50;0.50;;;12.40;99.90;;;;;;5076775;28;20297;-68
2021/12/28 11:26:02;;;;;;;1.08;0.90;;;12.40;99.90;;;;;;5076451;28;20234;-68
2021/12/28 11:28:30;;;;;;;2.03;0.98;;;12.40;99.90;;;;;;5076398;28;20669;-69
2021/12/28 11:31:05;;;;;;;13.00;8.82;;;12.40;99.90;;;;;;5076776;28;20257;-69
2021/12/28 11:34:06;;;;;;;7.45;4.93;;;12.40;99.90;;;;;;5076233;28;20242;-69
2021/12/28 11:36:36;;;;;;;3.78;3.35;;;12.50;99.90;;;;;;5014234;28;20224;-68
2021/12/28 11:39:08;;;;;;;4.68;3.30;;;12.70;99.90;;;;;;5064273;28;20202;-69
2021/12/28 11:41:35;;;;;;;4.93;3.75;;;12.70;99.90;;;;;;5076303;28;20309;-69
2021/12/28 11:44:03;;;;;;;3.35;2.00;;;12.80;99.90;;;;;;5076455;28;20211;-69
2021/12/28 11:46:31;;;;;;;4.45;3.90;;;12.80;99.90;;;;;;5075961;28;20730;-68
2021/12/28 11:48:58;;;;;;;1.50;1.40;;;12.80;99.90;;;;;;5076285;28;20223;-69
2021/12/28 11:51:26;;;;;;;1.67;1.58;;;12.90;99.90;;;;;;5076349;28;20621;-69
2021/12/28 11:53:55;;;;;;;1.17;1.17;;;13.00;99.90;;;;;;5076014;28;20199;-69
2021/12/28 11:56:28;;;;;;;1.05;1.00;;;13.00;99.90;;;;;;5075654;28;20229;-68
2021/12/28 11:59:11;;;;;;;0.80;0.80;;;13.00;99.90;;;;;;5076255;28;20605;-69
2021/12/28 12:02:03;;;;;;;1.38;1.27;;;13.00;99.90;;;;;;5076183;28;20194;-69
2021/12/28 12:04:58;;;;;;;0.90;0.77;;;13.00;99.90;;;;;;5075981;28;20197;-69
2021/12/28 12:07:30;;;;;;;0.77;0.77;;;12.90;99.90;;;;;;5075741;28;20273;-69
2021/12/28 12:10:30;;;;;;;0.55;0.50;;;12.90;99.90;;;;;;5075917;28;20633;-68
2021/12/28 12:13:21;;;;;;;0.60;0.60;;;12.90;99.90;;;;;;5075838;28;20624;-68
2021/12/28 12:15:54;;;;;;;0.80;0.50;;;12.80;99.90;;;;;;5075591;28;20239;-69
2021/12/28 12:18:24;;;;;;;0.50;0.50;;;12.80;99.90;;;;;;5075900;28;20205;-69
2021/12/28 12:20:55;;;;;;;0.60;0.60;;;12.80;99.90;;;;;;5075674;28;20209;-68
2021/12/28 12:23:28;;;;;;;0.57;0.57;;;12.80;99.90;;;;;;5075717;28;20195;-69
2021/12/28 12:25:59;;;;;;;0.80;0.80;;;12.80;99.90;;;;;;5075418;28;20229;-69
2021/12/28 12:28:55;;;;;;;1.88;1.70;;;12.80;99.90;;;;;;5075851;28;20225;-69
2021/12/28 12:31:29;;;;;;;3.28;1.58;;;12.70;99.90;;;;;;5075682;28;20211;-69
2021/12/28 12:33:56;;;;;;;0.73;0.73;;;12.70;99.90;;;;;;5075404;28;20203;-69
2021/12/28 12:36:32;;;;;;;1.60;1.50;;;12.70;99.90;;;;;;5075168;28;20219;-69
2021/12/28 12:39:02;;;;;;;0.95;0.90;;;12.70;99.90;;;;;;5075309;28;20598;-69
2021/12/28 12:41:40;;;;;;;1.20;1.10;;;12.70;99.90;;;;;;5075280;28;20298;-69
2021/12/28 12:44:15;;;;;;;1.00;1.00;;;12.70;99.90;;;;;;5075296;28;20196;-69
2021/12/28 12:46:46;;;;;;;1.10;1.10;;;12.80;99.90;;;;;;5075081;28;20237;-69
2021/12/28 12:49:24;;;;;;;1.08;0.98;;;12.80;99.90;;;;;;5075081;28;20325;-69
2021/12/28 12:51:54;;;;;;;0.85;0.85;;;12.90;99.90;;;;;;5074963;28;20583;-69
2021/12/28 12:54:28;;;;;;;1.50;1.40;;;12.80;99.90;;;;;;5074839;28;20214;-69
2021/12/28 12:57:07;;;;;;;1.15;1.05;;;12.90;99.90;;;;;;5074298;28;20226;-68
2021/12/28 12:59:42;;;;;;;1.05;0.73;;;12.90;99.90;;;;;;5074515;28;20625;-69
2021/12/28 13:02:11;;;;;;;1.00;1.00;;;12.80;99.90;;;;;;5074952;28;20207;-69